sensor_id;sensor_type;location;lat;lon;timestamp;temperature;humidity
39103;DHT22;24847;48.218;16.414;2023-04-01T00:01:48;11.20;99.90
39103;DHT22;24847;48.218;16.414;2023-04-01T00:07:12;11.20;99.90
39103;DHT22;24847;48.218;16.414;2023-04-01T00:12:35;10.90;99.90
39103;DHT22;24847;48.218;16.414;2023-04-01T00:17:58;11.00;99.90
39103;DHT22;24847;48.218;16.414;2023-04-01T00:23:23;11.10;99.90
39103;DHT22;24847;48.218;16.414;2023-04-01T00:28:45;11.00;99.90
39103;DHT22;24847;48.218;16.414;2023-04-01T00:34:08;11.00;99.90
39103;DHT22;24847;48.218;16.414;2023-04-01T00:39:33;11.00;99.90
39103;DHT22;24847;48.218;16.414;2023-04-01T00:44:57;10.90;99.90
39103;DHT22;24847;48.218;16.414;2023-04-01T00:50:20;10.90;99.90
39103;DHT22;24847;48.218;16.414;2023-04-01T00:55:50;10.90;99.90
39103;DHT22;24847;48.218;16.414;2023-04-01T01:01:19;10.90;99.90
39103;DHT22;24847;48.218;16.414;2023-04-01T01:06:46;10.70;99.90
39103;DHT22;24847;48.218;16.414;2023-04-01T01:12:18;10.80;99.90
39103;DHT22;24847;48.218;16.414;2023-04-01T01:17:48;10.90;99.90
39103;DHT22;24847;48.218;16.414;2023-04-01T01:23:39;10.80;99.90
39103;DHT22;24847;48.218;16.414;2023-04-01T01:29:23;10.80;99.90
39103;DHT22;24847;48.218;16.414;2023-04-01T01:34:54;10.80;99.90
39103;DHT22;24847;48.218;16.414;2023-04-01T01:40:31;10.80;99.90
39103;DHT22;24847;48.218;16.414;2023-04-01T01:45:55;10.90;99.90
39103;DHT22;24847;48.218;16.414;2023-04-01T01:51:22;10.80;99.90
39103;DHT22;24847;48.218;16.414;2023-04-01T01:56:48;10.70;99.90
39103;DHT22;24847;48.218;16.414;2023-04-01T02:02:13;10.80;99.90
39103;DHT22;24847;48.218;16.414;2023-04-01T02:07:39;10.50;99.90
39103;DHT22;24847;48.218;16.414;2023-04-01T02:13:09;10.70;99.90
39103;DHT22;24847;48.218;16.414;2023-04-01T02:18:36;10.70;99.90
39103;DHT22;24847;48.218;16.414;2023-04-01T02:24:04;10.60;99.90
39103;DHT22;24847;48.218;16.414;2023-04-01T02:29:30;10.60;99.90
39103;DHT22;24847;48.218;16.414;2023-04-01T02:34:53;10.50;99.90
39103;DHT22;24847;48.218;16.414;2023-04-01T02:40:18;10.60;99.90
39103;DHT22;24847;48.218;16.414;2023-04-01T02:45:41;10.40;99.90
39103;DHT22;24847;48.218;16.414;2023-04-01T02:51:03;10.50;99.90
39103;DHT22;24847;48.218;16.414;2023-04-01T02:56:28;10.50;99.90
39103;DHT22;24847;48.218;16.414;2023-04-01T03:01:50;10.40;99.90
39103;DHT22;24847;48.218;16.414;2023-04-01T03:07:13;10.40;99.90
39103;DHT22;24847;48.218;16.414;2023-04-01T03:12:37;10.30;99.90
39103;DHT22;24847;48.218;16.414;2023-04-01T03:17:59;10.40;99.90
39103;DHT22;24847;48.218;16.414;2023-04-01T03:23:22;10.30;99.90
39103;DHT22;24847;48.218;16.414;2023-04-01T03:28:46;10.30;99.90
39103;DHT22;24847;48.218;16.414;2023-04-01T03:34:09;10.20;99.90
39103;DHT22;24847;48.218;16.414;2023-04-01T03:39:31;10.10;99.90
39103;DHT22;24847;48.218;16.414;2023-04-01T03:44:55;10.10;99.90
39103;DHT22;24847;48.218;16.414;2023-04-01T03:50:18;10.00;99.90
39103;DHT22;24847;48.218;16.414;2023-04-01T03:55:40;10.10;99.90
39103;DHT22;24847;48.218;16.414;2023-04-01T04:01:13;10.10;99.90
39103;DHT22;24847;48.218;16.414;2023-04-01T04:06:36;10.10;99.90
39103;DHT22;24847;48.218;16.414;2023-04-01T04:11:59;10.00;99.90
39103;DHT22;24847;48.218;16.414;2023-04-01T04:17:23;10.10;99.90
39103;DHT22;24847;48.218;16.414;2023-04-01T04:22:46;10.00;99.90
39103;DHT22;24847;48.218;16.414;2023-04-01T04:28:08;10.10;99.90
39103;DHT22;24847;48.218;16.414;2023-04-01T04:33:32;10.00;99.90
39103;DHT22;24847;48.218;16.414;2023-04-01T04:38:55;10.00;99.90
39103;DHT22;24847;48.218;16.414;2023-04-01T04:44:18;10.10;99.90
39103;DHT22;24847;48.218;16.414;2023-04-01T04:49:42;10.10;99.90
39103;DHT22;24847;48.218;16.414;2023-04-01T04:55:06;10.00;99.90
39103;DHT22;24847;48.218;16.414;2023-04-01T05:00:29;10.10;99.90
39103;DHT22;24847;48.218;16.414;2023-04-01T05:05:53;9.80;99.90
39103;DHT22;24847;48.218;16.414;2023-04-01T05:11:18;9.90;99.90
39103;DHT22;24847;48.218;16.414;2023-04-01T05:16:41;10.00;99.90
39103;DHT22;24847;48.218;16.414;2023-04-01T05:22:05;9.90;99.90
39103;DHT22;24847;48.218;16.414;2023-04-01T05:27:28;9.90;99.90
39103;DHT22;24847;48.218;16.414;2023-04-01T05:32:50;10.00;99.90
39103;DHT22;24847;48.218;16.414;2023-04-01T05:38:14;10.00;99.90
39103;DHT22;24847;48.218;16.414;2023-04-01T05:43:38;10.20;99.90
39103;DHT22;24847;48.218;16.414;2023-04-01T05:49:01;10.10;99.90
39103;DHT22;24847;48.218;16.414;2023-04-01T05:54:25;10.20;99.90
39103;DHT22;24847;48.218;16.414;2023-04-01T05:59:47;10.10;99.90
39103;DHT22;24847;48.218;16.414;2023-04-01T06:05:15;10.40;99.90
39103;DHT22;24847;48.218;16.414;2023-04-01T06:10:51;10.30;99.90
39103;DHT22;24847;48.218;16.414;2023-04-01T06:16:24;10.40;99.90
39103;DHT22;24847;48.218;16.414;2023-04-01T06:28:18;10.80;99.90
39103;DHT22;24847;48.218;16.414;2023-04-01T06:34:05;10.70;99.90
39103;DHT22;24847;48.218;16.414;2023-04-01T06:39:52;10.90;99.90
39103;DHT22;24847;48.218;16.414;2023-04-01T06:45:31;11.00;99.90
39103;DHT22;24847;48.218;16.414;2023-04-01T06:51:02;11.00;99.90
39103;DHT22;24847;48.218;16.414;2023-04-01T06:56:30;11.00;99.90
39103;DHT22;24847;48.218;16.414;2023-04-01T07:01:58;11.10;99.90
39103;DHT22;24847;48.218;16.414;2023-04-01T07:07:29;11.10;99.90
39103;DHT22;24847;48.218;16.414;2023-04-01T07:13:00;11.20;99.90
39103;DHT22;24847;48.218;16.414;2023-04-01T07:18:32;11.10;99.90
39103;DHT22;24847;48.218;16.414;2023-04-01T07:24:01;11.50;99.90
39103;DHT22;24847;48.218;16.414;2023-04-01T07:29:26;12.10;99.90
39103;DHT22;24847;48.218;16.414;2023-04-01T07:34:58;13.10;99.90
39103;DHT22;24847;48.218;16.414;2023-04-01T07:40:34;14.10;99.90
39103;DHT22;24847;48.218;16.414;2023-04-01T07:46:08;13.90;99.90
39103;DHT22;24847;48.218;16.414;2023-04-01T07:51:38;14.50;99.90
39103;DHT22;24847;48.218;16.414;2023-04-01T07:57:11;15.10;99.90
39103;DHT22;24847;48.218;16.414;2023-04-01T08:02:47;15.40;99.90
39103;DHT22;24847;48.218;16.414;2023-04-01T08:08:24;15.90;99.90
39103;DHT22;24847;48.218;16.414;2023-04-01T08:14:00;15.40;99.90
39103;DHT22;24847;48.218;16.414;2023-04-01T08:19:31;16.50;99.90
39103;DHT22;24847;48.218;16.414;2023-04-01T08:25:05;16.30;99.90
39103;DHT22;24847;48.218;16.414;2023-04-01T08:30:36;15.60;99.90
39103;DHT22;24847;48.218;16.414;2023-04-01T08:36:05;14.50;99.90
39103;DHT22;24847;48.218;16.414;2023-04-01T08:42:11;13.60;99.90
39103;DHT22;24847;48.218;16.414;2023-04-01T08:48:08;13.70;99.90
39103;DHT22;24847;48.218;16.414;2023-04-01T08:53:57;14.10;99.90
39103;DHT22;24847;48.218;16.414;2023-04-01T08:59:38;13.40;99.90
39103;DHT22;24847;48.218;16.414;2023-04-01T09:05:35;13.10;99.90
39103;DHT22;24847;48.218;16.414;2023-04-01T09:11:08;13.90;99.90
39103;DHT22;24847;48.218;16.414;2023-04-01T09:16:59;13.50;99.90
39103;DHT22;24847;48.218;16.414;2023-04-01T09:22:40;13.30;99.90
39103;DHT22;24847;48.218;16.414;2023-04-01T09:28:10;12.90;99.90
39103;DHT22;24847;48.218;16.414;2023-04-01T09:34:00;13.10;99.90
39103;DHT22;24847;48.218;16.414;2023-04-01T09:40:14;13.30;99.90
39103;DHT22;24847;48.218;16.414;2023-04-01T09:45:47;12.90;99.90
39103;DHT22;24847;48.218;16.414;2023-04-01T09:51:26;12.70;99.90
39103;DHT22;24847;48.218;16.414;2023-04-01T10:03:43;13.70;99.90
39103;DHT22;24847;48.218;16.414;2023-04-01T10:10:05;13.70;99.90
39103;DHT22;24847;48.218;16.414;2023-04-01T10:35:14;14.60;99.90
39103;DHT22;24847;48.218;16.414;2023-04-01T10:40:57;14.10;99.90
39103;DHT22;24847;48.218;16.414;2023-04-01T10:47:08;13.80;99.90
39103;DHT22;24847;48.218;16.414;2023-04-01T10:59:20;13.50;99.90
39103;DHT22;24847;48.218;16.414;2023-04-01T11:12:25;13.50;99.90
39103;DHT22;24847;48.218;16.414;2023-04-01T11:24:53;13.50;99.90
39103;DHT22;24847;48.218;16.414;2023-04-01T11:30:44;13.90;99.90
39103;DHT22;24847;48.218;16.414;2023-04-01T11:36:24;13.70;99.90
39103;DHT22;24847;48.218;16.414;2023-04-01T11:41:56;13.60;99.90
39103;DHT22;24847;48.218;16.414;2023-04-01T11:47:49;13.70;99.90
39103;DHT22;24847;48.218;16.414;2023-04-01T11:53:26;13.60;99.90
39103;DHT22;24847;48.218;16.414;2023-04-01T12:05:22;13.80;99.90
39103;DHT22;24847;48.218;16.414;2023-04-01T12:10:53;13.50;99.90
39103;DHT22;24847;48.218;16.414;2023-04-01T12:16:29;14.00;99.90
39103;DHT22;24847;48.218;16.414;2023-04-01T12:28:03;14.80;99.90
39103;DHT22;24847;48.218;16.414;2023-04-01T12:33:45;15.00;99.90
39103;DHT22;24847;48.218;16.414;2023-04-01T12:39:44;15.40;99.90
39103;DHT22;24847;48.218;16.414;2023-04-01T12:45:27;15.50;99.90
39103;DHT22;24847;48.218;16.414;2023-04-01T12:51:29;15.10;99.90
39103;DHT22;24847;48.218;16.414;2023-04-01T12:57:10;14.60;99.90
39103;DHT22;24847;48.218;16.414;2023-04-01T13:02:55;14.40;99.90
39103;DHT22;24847;48.218;16.414;2023-04-01T13:08:37;14.00;99.90
39103;DHT22;24847;48.218;16.414;2023-04-01T13:14:21;14.40;99.90
39103;DHT22;24847;48.218;16.414;2023-04-01T13:20:03;14.80;99.90
39103;DHT22;24847;48.218;16.414;2023-04-01T13:25:36;14.60;99.90
39103;DHT22;24847;48.218;16.414;2023-04-01T13:31:08;15.10;99.90
39103;DHT22;24847;48.218;16.414;2023-04-01T13:36:42;15.10;99.90
39103;DHT22;24847;48.218;16.414;2023-04-01T13:42:21;14.80;99.90
39103;DHT22;24847;48.218;16.414;2023-04-01T14:00:19;14.90;98.30
39103;DHT22;24847;48.218;16.414;2023-04-01T14:05:59;14.80;97.90
39103;DHT22;24847;48.218;16.414;2023-04-01T14:11:33;14.70;97.90
39103;DHT22;24847;48.218;16.414;2023-04-01T14:17:10;15.00;97.60
39103;DHT22;24847;48.218;16.414;2023-04-01T14:22:49;15.20;97.70
39103;DHT22;24847;48.218;16.414;2023-04-01T14:28:25;15.00;98.20
39103;DHT22;24847;48.218;16.414;2023-04-01T14:34:00;15.10;98.10
39103;DHT22;24847;48.218;16.414;2023-04-01T14:39:49;15.20;97.50
39103;DHT22;24847;48.218;16.414;2023-04-01T14:45:51;15.30;96.90
39103;DHT22;24847;48.218;16.414;2023-04-01T14:51:22;15.30;95.90
39103;DHT22;24847;48.218;16.414;2023-04-01T14:57:05;15.10;95.50
39103;DHT22;24847;48.218;16.414;2023-04-01T15:02:45;15.10;95.00
39103;DHT22;24847;48.218;16.414;2023-04-01T15:08:17;15.10;94.30
39103;DHT22;24847;48.218;16.414;2023-04-01T15:20:02;15.10;93.50
39103;DHT22;24847;48.218;16.414;2023-04-01T15:25:45;14.90;93.80
39103;DHT22;24847;48.218;16.414;2023-04-01T15:31:17;15.10;94.30
39103;DHT22;24847;48.218;16.414;2023-04-01T15:36:45;15.20;93.20
39103;DHT22;24847;48.218;16.414;2023-04-01T15:42:23;15.00;93.30
39103;DHT22;24847;48.218;16.414;2023-04-01T15:47:59;15.00;94.30
39103;DHT22;24847;48.218;16.414;2023-04-01T15:53:37;15.00;95.80
39103;DHT22;24847;48.218;16.414;2023-04-01T15:59:41;14.90;96.70
39103;DHT22;24847;48.218;16.414;2023-04-01T16:05:26;14.30;99.00
39103;DHT22;24847;48.218;16.414;2023-04-01T16:11:09;14.30;99.60
39103;DHT22;24847;48.218;16.414;2023-04-01T16:16:50;14.20;99.90
39103;DHT22;24847;48.218;16.414;2023-04-01T16:22:23;14.20;99.90
39103;DHT22;24847;48.218;16.414;2023-04-01T16:27:54;14.20;99.90
39103;DHT22;24847;48.218;16.414;2023-04-01T16:33:37;14.10;99.90
39103;DHT22;24847;48.218;16.414;2023-04-01T16:39:17;13.80;99.90
39103;DHT22;24847;48.218;16.414;2023-04-01T16:44:50;13.80;99.90
39103;DHT22;24847;48.218;16.414;2023-04-01T16:50:20;13.80;99.90
39103;DHT22;24847;48.218;16.414;2023-04-01T16:55:49;13.80;99.90
39103;DHT22;24847;48.218;16.414;2023-04-01T17:01:21;13.50;99.90
39103;DHT22;24847;48.218;16.414;2023-04-01T17:06:52;13.40;99.90
39103;DHT22;24847;48.218;16.414;2023-04-01T17:12:26;13.40;99.90
39103;DHT22;24847;48.218;16.414;2023-04-01T17:17:56;13.20;99.90
39103;DHT22;24847;48.218;16.414;2023-04-01T17:23:27;13.00;99.90
39103;DHT22;24847;48.218;16.414;2023-04-01T17:28:58;12.70;99.90
39103;DHT22;24847;48.218;16.414;2023-04-01T17:34:46;12.60;99.90
39103;DHT22;24847;48.218;16.414;2023-04-01T17:40:34;12.50;99.90
39103;DHT22;24847;48.218;16.414;2023-04-01T17:46:19;12.40;99.90
39103;DHT22;24847;48.218;16.414;2023-04-01T17:51:55;12.30;99.90
39103;DHT22;24847;48.218;16.414;2023-04-01T17:57:38;12.30;99.90
39103;DHT22;24847;48.218;16.414;2023-04-01T18:03:16;11.80;99.90
39103;DHT22;24847;48.218;16.414;2023-04-01T18:08:58;11.90;99.90
39103;DHT22;24847;48.218;16.414;2023-04-01T18:14:36;11.70;99.90
39103;DHT22;24847;48.218;16.414;2023-04-01T18:20:30;12.00;99.90
39103;DHT22;24847;48.218;16.414;2023-04-01T18:26:08;11.80;99.90
39103;DHT22;24847;48.218;16.414;2023-04-01T18:31:36;11.70;99.90
39103;DHT22;24847;48.218;16.414;2023-04-01T18:37:17;11.70;99.90
39103;DHT22;24847;48.218;16.414;2023-04-01T18:42:50;11.60;99.90
39103;DHT22;24847;48.218;16.414;2023-04-01T18:48:40;11.50;99.90
39103;DHT22;24847;48.218;16.414;2023-04-01T18:54:14;11.50;99.90
39103;DHT22;24847;48.218;16.414;2023-04-01T18:59:46;11.50;99.90
39103;DHT22;24847;48.218;16.414;2023-04-01T19:05:20;11.50;99.90
39103;DHT22;24847;48.218;16.414;2023-04-01T19:10:57;11.40;99.90
39103;DHT22;24847;48.218;16.414;2023-04-01T19:16:39;11.20;99.90
39103;DHT22;24847;48.218;16.414;2023-04-01T19:22:30;11.20;99.90
39103;DHT22;24847;48.218;16.414;2023-04-01T19:28:15;11.30;99.90
39103;DHT22;24847;48.218;16.414;2023-04-01T19:33:52;11.00;99.90
39103;DHT22;24847;48.218;16.414;2023-04-01T19:39:33;10.90;99.90
39103;DHT22;24847;48.218;16.414;2023-04-01T19:45:23;10.90;99.90
39103;DHT22;24847;48.218;16.414;2023-04-01T19:50:57;10.90;99.90
39103;DHT22;24847;48.218;16.414;2023-04-01T19:56:22;10.60;99.90
39103;DHT22;24847;48.218;16.414;2023-04-01T20:01:53;10.50;99.90
39103;DHT22;24847;48.218;16.414;2023-04-01T20:07:26;10.70;99.90
39103;DHT22;24847;48.218;16.414;2023-04-01T20:12:57;10.50;99.90
39103;DHT22;24847;48.218;16.414;2023-04-01T20:18:34;10.40;99.90
39103;DHT22;24847;48.218;16.414;2023-04-01T20:24:04;10.60;99.90
39103;DHT22;24847;48.218;16.414;2023-04-01T20:29:55;10.60;99.90
39103;DHT22;24847;48.218;16.414;2023-04-01T20:35:34;10.40;99.90
39103;DHT22;24847;48.218;16.414;2023-04-01T20:41:05;10.40;99.90
39103;DHT22;24847;48.218;16.414;2023-04-01T20:46:45;10.40;99.90
39103;DHT22;24847;48.218;16.414;2023-04-01T20:52:32;10.40;99.90
39103;DHT22;24847;48.218;16.414;2023-04-01T20:58:09;10.50;99.90
39103;DHT22;24847;48.218;16.414;2023-04-01T21:03:43;10.30;99.90
39103;DHT22;24847;48.218;16.414;2023-04-01T21:09:24;10.40;99.90
39103;DHT22;24847;48.218;16.414;2023-04-01T21:15:12;10.40;99.90
39103;DHT22;24847;48.218;16.414;2023-04-01T21:27:00;10.60;99.90
39103;DHT22;24847;48.218;16.414;2023-04-01T21:32:41;10.40;99.90
39103;DHT22;24847;48.218;16.414;2023-04-01T21:38:24;10.50;99.90
39103;DHT22;24847;48.218;16.414;2023-04-01T21:44:16;10.50;99.90
39103;DHT22;24847;48.218;16.414;2023-04-01T22:02:23;10.50;99.90
39103;DHT22;24847;48.218;16.414;2023-04-01T22:08:01;10.40;99.90
39103;DHT22;24847;48.218;16.414;2023-04-01T22:13:30;10.30;99.90
39103;DHT22;24847;48.218;16.414;2023-04-01T22:19:03;10.30;99.90
39103;DHT22;24847;48.218;16.414;2023-04-01T22:24:45;10.40;99.90
39103;DHT22;24847;48.218;16.414;2023-04-01T22:30:19;10.30;99.90
39103;DHT22;24847;48.218;16.414;2023-04-01T22:35:50;10.40;99.90
39103;DHT22;24847;48.218;16.414;2023-04-01T22:41:26;10.50;99.90
39103;DHT22;24847;48.218;16.414;2023-04-01T22:47:02;10.40;99.90
39103;DHT22;24847;48.218;16.414;2023-04-01T22:52:31;10.30;99.90
39103;DHT22;24847;48.218;16.414;2023-04-01T22:57:58;10.30;99.90
39103;DHT22;24847;48.218;16.414;2023-04-01T23:03:28;10.20;99.90
39103;DHT22;24847;48.218;16.414;2023-04-01T23:09:07;10.40;99.90
39103;DHT22;24847;48.218;16.414;2023-04-01T23:14:38;10.50;99.90
39103;DHT22;24847;48.218;16.414;2023-04-01T23:26:07;10.30;99.90
39103;DHT22;24847;48.218;16.414;2023-04-01T23:31:35;10.40;99.90
39103;DHT22;24847;48.218;16.414;2023-04-01T23:37:03;10.30;99.90
39103;DHT22;24847;48.218;16.414;2023-04-01T23:42:29;10.30;99.90
39103;DHT22;24847;48.218;16.414;2023-04-01T23:47:52;10.40;99.90
39103;DHT22;24847;48.218;16.414;2023-04-01T23:53:17;10.40;99.90
39103;DHT22;24847;48.218;16.414;2023-04-01T23:58:45;10.30;99.90
